Main page
METAR-TAF:

METAR-TAF

Airports :

Urmia, Iran

Urmia Airport

latitude: 37-32N, longitude: 045-05E, elevation: 1297 m

Current weather observation

The report was made 20 minutes ago, at 04:30 UTC
Wind 4 kt from the West
Temperature 23°C
Humidity 36%
Pressure 1016 hPa
Visibility 10 km or more
no clouds below 1500 m and no cumulonimbus

METAR: OITR 240430Z 27004KT CAVOK 23/07 Q1016

Time: 09:20 (04:50 UTC)

Forecast

The report was made 5 hours and 50 minutes ago, at 23:00 UTC
Forecast valid from 24 at 00 UTC to 25 at 06 UTC
Wind 10 kt from the West/Southwest
Visibility 10 km or more
no clouds below 1500 m and no cumulonimbus
Temporary
from 24 at 10 UTC to 24 at 13 UTC
Wind 16 kt from the East/Northeast
Temporary
from 24 at 18 UTC to 25 at 03 UTC
Wind 17 kt from the Northeast

TAF: OITR 232300Z 2400/2506 24005MPS CAVOK TEMPO 2410/2413 07008MPS TEMPO 2418/2503 05009MPS

Weather observations and forecasts of more than 4000 airports (METAR and TAF reports).

The available stations are represented by yellow and red dots on the map.

Hover mouse over dot to see the name of the station.

Then click to see weather observations and forecasts.

To change the map : click on the green buttons with a black cross to zoom in, on the green button with a dash to zoom out, or on the green arrows for adjacent maps.


METAR-TAF: